sensor_id;sensor_type;location;lat;lon;timestamp;P1;durP1;ratioP1;P2;durP2;ratioP2
17363;SDS011;8799;43.594;13.526;2023-03-05T00:01:25;9.93;;;5.33;;
17363;SDS011;8799;43.594;13.526;2023-03-05T00:03:55;11.47;;;5.63;;
17363;SDS011;8799;43.594;13.526;2023-03-05T00:06:24;10.20;;;5.67;;
17363;SDS011;8799;43.594;13.526;2023-03-05T00:08:54;9.60;;;5.47;;
17363;SDS011;8799;43.594;13.526;2023-03-05T00:11:22;13.40;;;6.23;;
17363;SDS011;8799;43.594;13.526;2023-03-05T00:13:55;12.23;;;5.43;;
17363;SDS011;8799;43.594;13.526;2023-03-05T00:16:25;9.27;;;5.27;;
17363;SDS011;8799;43.594;13.526;2023-03-05T00:18:54;12.83;;;5.67;;
17363;SDS011;8799;43.594;13.526;2023-03-05T00:21:24;10.30;;;4.80;;
17363;SDS011;8799;43.594;13.526;2023-03-05T00:23:53;9.03;;;5.10;;
17363;SDS011;8799;43.594;13.526;2023-03-05T00:26:23;9.10;;;4.93;;
17363;SDS011;8799;43.594;13.526;2023-03-05T00:28:53;10.00;;;4.93;;
17363;SDS011;8799;43.594;13.526;2023-03-05T00:31:23;11.87;;;5.50;;
17363;SDS011;8799;43.594;13.526;2023-03-05T00:33:55;12.70;;;6.03;;
17363;SDS011;8799;43.594;13.526;2023-03-05T00:36:24;8.33;;;5.23;;
17363;SDS011;8799;43.594;13.526;2023-03-05T00:38:52;8.90;;;5.07;;
17363;SDS011;8799;43.594;13.526;2023-03-05T00:41:20;11.00;;;6.00;;
17363;SDS011;8799;43.594;13.526;2023-03-05T00:43:48;8.37;;;5.03;;
17363;SDS011;8799;43.594;13.526;2023-03-05T00:46:18;11.53;;;5.40;;
17363;SDS011;8799;43.594;13.526;2023-03-05T00:48:45;12.20;;;5.10;;
17363;SDS011;8799;43.594;13.526;2023-03-05T00:51:13;8.27;;;4.93;;
17363;SDS011;8799;43.594;13.526;2023-03-05T00:53:41;10.53;;;5.53;;
17363;SDS011;8799;43.594;13.526;2023-03-05T00:56:09;11.43;;;5.77;;
17363;SDS011;8799;43.594;13.526;2023-03-05T00:58:38;10.50;;;5.67;;
17363;SDS011;8799;43.594;13.526;2023-03-05T01:01:06;11.20;;;5.87;;
17363;SDS011;8799;43.594;13.526;2023-03-05T01:03:36;8.37;;;5.50;;
17363;SDS011;8799;43.594;13.526;2023-03-05T01:06:04;9.70;;;5.37;;
17363;SDS011;8799;43.594;13.526;2023-03-05T01:08:35;8.90;;;5.10;;
17363;SDS011;8799;43.594;13.526;2023-03-05T01:11:04;11.00;;;5.70;;
17363;SDS011;8799;43.594;13.526;2023-03-05T01:13:33;9.80;;;4.97;;
17363;SDS011;8799;43.594;13.526;2023-03-05T01:16:02;9.37;;;5.20;;
17363;SDS011;8799;43.594;13.526;2023-03-05T01:18:31;8.13;;;4.93;;
17363;SDS011;8799;43.594;13.526;2023-03-05T01:21:01;9.67;;;5.10;;
17363;SDS011;8799;43.594;13.526;2023-03-05T01:23:30;9.63;;;5.37;;
17363;SDS011;8799;43.594;13.526;2023-03-05T01:25:58;8.90;;;4.83;;
17363;SDS011;8799;43.594;13.526;2023-03-05T01:28:26;12.33;;;5.60;;
17363;SDS011;8799;43.594;13.526;2023-03-05T01:30:55;8.77;;;5.17;;
17363;SDS011;8799;43.594;13.526;2023-03-05T01:33:22;8.83;;;4.87;;
17363;SDS011;8799;43.594;13.526;2023-03-05T01:35:50;12.60;;;5.60;;
17363;SDS011;8799;43.594;13.526;2023-03-05T01:38:20;8.73;;;5.03;;
17363;SDS011;8799;43.594;13.526;2023-03-05T01:40:49;11.67;;;5.03;;
17363;SDS011;8799;43.594;13.526;2023-03-05T01:43:20;9.40;;;5.03;;
17363;SDS011;8799;43.594;13.526;2023-03-05T01:48:53;11.23;;;4.93;;
17363;SDS011;8799;43.594;13.526;2023-03-05T01:51:28;9.50;;;5.13;;
17363;SDS011;8799;43.594;13.526;2023-03-05T01:54:01;7.83;;;5.07;;
17363;SDS011;8799;43.594;13.526;2023-03-05T01:56:31;10.67;;;5.63;;
17363;SDS011;8799;43.594;13.526;2023-03-05T01:59:00;13.27;;;5.37;;
17363;SDS011;8799;43.594;13.526;2023-03-05T02:01:30;11.33;;;5.07;;
17363;SDS011;8799;43.594;13.526;2023-03-05T02:04:00;11.63;;;5.07;;
17363;SDS011;8799;43.594;13.526;2023-03-05T02:06:28;9.13;;;4.67;;
17363;SDS011;8799;43.594;13.526;2023-03-05T02:08:57;10.03;;;4.50;;
17363;SDS011;8799;43.594;13.526;2023-03-05T02:11:27;8.80;;;5.23;;
17363;SDS011;8799;43.594;13.526;2023-03-05T02:13:55;9.30;;;4.97;;
17363;SDS011;8799;43.594;13.526;2023-03-05T02:16:24;8.13;;;4.97;;
17363;SDS011;8799;43.594;13.526;2023-03-05T02:19:00;10.33;;;5.27;;
17363;SDS011;8799;43.594;13.526;2023-03-05T02:21:36;14.33;;;5.20;;
17363;SDS011;8799;43.594;13.526;2023-03-05T02:24:06;9.27;;;5.30;;
17363;SDS011;8799;43.594;13.526;2023-03-05T02:26:36;5.87;;;3.80;;
17363;SDS011;8799;43.594;13.526;2023-03-05T02:29:05;8.43;;;4.80;;
17363;SDS011;8799;43.594;13.526;2023-03-05T02:31:35;16.70;;;5.00;;
17363;SDS011;8799;43.594;13.526;2023-03-05T02:34:04;7.73;;;4.37;;
17363;SDS011;8799;43.594;13.526;2023-03-05T02:36:32;8.80;;;4.53;;
17363;SDS011;8799;43.594;13.526;2023-03-05T02:39:02;13.73;;;5.27;;
17363;SDS011;8799;43.594;13.526;2023-03-05T02:41:30;8.60;;;5.23;;
17363;SDS011;8799;43.594;13.526;2023-03-05T02:43:59;9.47;;;4.50;;
17363;SDS011;8799;43.594;13.526;2023-03-05T02:46:27;12.50;;;4.67;;
17363;SDS011;8799;43.594;13.526;2023-03-05T02:48:55;8.93;;;4.20;;
17363;SDS011;8799;43.594;13.526;2023-03-05T02:51:23;9.47;;;3.93;;
17363;SDS011;8799;43.594;13.526;2023-03-05T02:53:51;12.67;;;5.03;;
17363;SDS011;8799;43.594;13.526;2023-03-05T02:56:19;6.90;;;4.20;;
17363;SDS011;8799;43.594;13.526;2023-03-05T02:58:48;7.93;;;4.00;;
17363;SDS011;8799;43.594;13.526;2023-03-05T03:01:16;8.97;;;4.63;;
17363;SDS011;8799;43.594;13.526;2023-03-05T03:03:45;9.93;;;4.60;;
17363;SDS011;8799;43.594;13.526;2023-03-05T03:06:13;8.17;;;4.60;;
17363;SDS011;8799;43.594;13.526;2023-03-05T03:08:41;9.00;;;4.47;;
17363;SDS011;8799;43.594;13.526;2023-03-05T03:11:09;10.03;;;4.47;;
17363;SDS011;8799;43.594;13.526;2023-03-05T03:13:40;10.77;;;4.70;;
17363;SDS011;8799;43.594;13.526;2023-03-05T03:16:11;13.17;;;4.10;;
17363;SDS011;8799;43.594;13.526;2023-03-05T03:18:41;8.57;;;4.10;;
17363;SDS011;8799;43.594;13.526;2023-03-05T03:21:15;10.87;;;4.37;;
17363;SDS011;8799;43.594;13.526;2023-03-05T03:23:44;8.57;;;4.70;;
17363;SDS011;8799;43.594;13.526;2023-03-05T03:26:12;7.07;;;4.17;;
17363;SDS011;8799;43.594;13.526;2023-03-05T03:28:42;7.50;;;4.30;;
17363;SDS011;8799;43.594;13.526;2023-03-05T03:31:10;10.00;;;4.70;;
17363;SDS011;8799;43.594;13.526;2023-03-05T03:33:38;10.70;;;4.27;;
17363;SDS011;8799;43.594;13.526;2023-03-05T03:36:06;8.57;;;3.90;;
17363;SDS011;8799;43.594;13.526;2023-03-05T03:38:34;7.50;;;4.20;;
17363;SDS011;8799;43.594;13.526;2023-03-05T03:41:07;6.67;;;4.20;;
17363;SDS011;8799;43.594;13.526;2023-03-05T03:43:35;8.93;;;4.87;;
17363;SDS011;8799;43.594;13.526;2023-03-05T03:46:06;9.57;;;3.90;;
17363;SDS011;8799;43.594;13.526;2023-03-05T03:48:34;8.17;;;3.93;;
17363;SDS011;8799;43.594;13.526;2023-03-05T03:51:03;8.17;;;4.20;;
17363;SDS011;8799;43.594;13.526;2023-03-05T03:53:32;10.50;;;4.20;;
17363;SDS011;8799;43.594;13.526;2023-03-05T03:56:00;9.83;;;4.13;;
17363;SDS011;8799;43.594;13.526;2023-03-05T03:58:29;9.00;;;4.40;;
17363;SDS011;8799;43.594;13.526;2023-03-05T04:00:57;8.07;;;4.40;;
17363;SDS011;8799;43.594;13.526;2023-03-05T04:03:26;8.73;;;4.17;;
17363;SDS011;8799;43.594;13.526;2023-03-05T04:05:55;7.67;;;4.30;;
17363;SDS011;8799;43.594;13.526;2023-03-05T04:08:22;6.37;;;4.13;;
17363;SDS011;8799;43.594;13.526;2023-03-05T04:10:50;7.87;;;4.20;;
17363;SDS011;8799;43.594;13.526;2023-03-05T04:13:18;14.80;;;5.03;;
17363;SDS011;8799;43.594;13.526;2023-03-05T04:15:46;6.47;;;3.70;;
17363;SDS011;8799;43.594;13.526;2023-03-05T04:18:14;6.60;;;4.00;;
17363;SDS011;8799;43.594;13.526;2023-03-05T04:20:43;8.50;;;3.80;;
17363;SDS011;8799;43.594;13.526;2023-03-05T04:23:11;7.00;;;4.00;;
17363;SDS011;8799;43.594;13.526;2023-03-05T04:25:39;7.87;;;4.13;;
17363;SDS011;8799;43.594;13.526;2023-03-05T04:28:07;10.93;;;4.40;;
17363;SDS011;8799;43.594;13.526;2023-03-05T04:30:35;8.47;;;4.90;;
17363;SDS011;8799;43.594;13.526;2023-03-05T04:33:03;7.10;;;4.03;;
17363;SDS011;8799;43.594;13.526;2023-03-05T04:35:32;8.70;;;4.10;;
17363;SDS011;8799;43.594;13.526;2023-03-05T04:38:01;7.67;;;4.10;;
17363;SDS011;8799;43.594;13.526;2023-03-05T04:40:30;8.63;;;4.00;;
17363;SDS011;8799;43.594;13.526;2023-03-05T04:42:58;9.03;;;4.13;;
17363;SDS011;8799;43.594;13.526;2023-03-05T04:45:26;6.97;;;4.17;;
17363;SDS011;8799;43.594;13.526;2023-03-05T04:47:53;5.80;;;3.47;;
17363;SDS011;8799;43.594;13.526;2023-03-05T04:50:21;7.83;;;4.07;;
17363;SDS011;8799;43.594;13.526;2023-03-05T04:52:50;6.83;;;4.27;;
17363;SDS011;8799;43.594;13.526;2023-03-05T04:55:19;7.90;;;4.17;;
17363;SDS011;8799;43.594;13.526;2023-03-05T04:57:47;8.20;;;4.20;;
17363;SDS011;8799;43.594;13.526;2023-03-05T05:00:15;7.47;;;3.70;;
17363;SDS011;8799;43.594;13.526;2023-03-05T05:02:45;8.77;;;3.90;;
17363;SDS011;8799;43.594;13.526;2023-03-05T05:05:15;6.27;;;3.80;;
17363;SDS011;8799;43.594;13.526;2023-03-05T05:07:44;11.63;;;4.70;;
17363;SDS011;8799;43.594;13.526;2023-03-05T05:10:12;7.63;;;4.00;;
17363;SDS011;8799;43.594;13.526;2023-03-05T05:12:42;9.07;;;4.00;;
17363;SDS011;8799;43.594;13.526;2023-03-05T05:15:10;8.50;;;4.23;;
17363;SDS011;8799;43.594;13.526;2023-03-05T05:17:39;8.80;;;4.40;;
17363;SDS011;8799;43.594;13.526;2023-03-05T05:20:07;7.70;;;4.60;;
17363;SDS011;8799;43.594;13.526;2023-03-05T05:22:37;6.90;;;3.83;;
17363;SDS011;8799;43.594;13.526;2023-03-05T05:25:05;6.67;;;3.87;;
17363;SDS011;8799;43.594;13.526;2023-03-05T05:27:35;7.27;;;3.97;;
17363;SDS011;8799;43.594;13.526;2023-03-05T05:30:07;7.00;;;3.90;;
17363;SDS011;8799;43.594;13.526;2023-03-05T05:32:36;11.17;;;4.17;;
17363;SDS011;8799;43.594;13.526;2023-03-05T05:35:04;8.77;;;4.17;;
17363;SDS011;8799;43.594;13.526;2023-03-05T05:37:32;7.20;;;3.93;;
17363;SDS011;8799;43.594;13.526;2023-03-05T05:40:00;11.37;;;4.07;;
17363;SDS011;8799;43.594;13.526;2023-03-05T05:42:28;10.60;;;4.67;;
17363;SDS011;8799;43.594;13.526;2023-03-05T05:44:56;8.23;;;4.17;;
17363;SDS011;8799;43.594;13.526;2023-03-05T05:47:26;10.50;;;3.97;;
17363;SDS011;8799;43.594;13.526;2023-03-05T05:49:55;6.30;;;3.77;;
17363;SDS011;8799;43.594;13.526;2023-03-05T05:52:23;8.27;;;4.40;;
17363;SDS011;8799;43.594;13.526;2023-03-05T05:54:51;7.33;;;4.17;;
17363;SDS011;8799;43.594;13.526;2023-03-05T05:57:19;9.47;;;4.27;;
17363;SDS011;8799;43.594;13.526;2023-03-05T05:59:47;7.37;;;3.70;;
17363;SDS011;8799;43.594;13.526;2023-03-05T06:02:15;8.20;;;4.23;;
17363;SDS011;8799;43.594;13.526;2023-03-05T06:04:44;6.83;;;3.90;;
17363;SDS011;8799;43.594;13.526;2023-03-05T06:07:13;9.77;;;3.87;;
17363;SDS011;8799;43.594;13.526;2023-03-05T06:09:41;6.23;;;3.80;;
17363;SDS011;8799;43.594;13.526;2023-03-05T06:12:10;7.97;;;3.83;;
17363;SDS011;8799;43.594;13.526;2023-03-05T06:14:38;10.60;;;4.43;;
17363;SDS011;8799;43.594;13.526;2023-03-05T06:17:06;7.10;;;4.07;;
17363;SDS011;8799;43.594;13.526;2023-03-05T06:19:33;6.43;;;3.77;;
17363;SDS011;8799;43.594;13.526;2023-03-05T06:22:03;12.03;;;4.77;;
17363;SDS011;8799;43.594;13.526;2023-03-05T06:24:31;7.20;;;3.60;;
17363;SDS011;8799;43.594;13.526;2023-03-05T06:27:03;8.47;;;4.30;;
17363;SDS011;8799;43.594;13.526;2023-03-05T06:29:31;7.07;;;3.47;;
17363;SDS011;8799;43.594;13.526;2023-03-05T06:31:59;8.23;;;3.83;;
17363;SDS011;8799;43.594;13.526;2023-03-05T06:34:27;10.03;;;4.13;;
17363;SDS011;8799;43.594;13.526;2023-03-05T06:36:55;9.23;;;3.70;;
17363;SDS011;8799;43.594;13.526;2023-03-05T06:39:24;5.93;;;3.67;;
17363;SDS011;8799;43.594;13.526;2023-03-05T06:41:53;5.40;;;3.10;;
17363;SDS011;8799;43.594;13.526;2023-03-05T06:44:20;7.90;;;3.47;;
17363;SDS011;8799;43.594;13.526;2023-03-05T06:46:49;8.53;;;4.20;;
17363;SDS011;8799;43.594;13.526;2023-03-05T06:49:16;8.07;;;3.93;;
17363;SDS011;8799;43.594;13.526;2023-03-05T06:51:45;9.30;;;4.20;;
17363;SDS011;8799;43.594;13.526;2023-03-05T06:54:14;7.47;;;3.27;;
17363;SDS011;8799;43.594;13.526;2023-03-05T06:56:45;7.00;;;3.30;;
17363;SDS011;8799;43.594;13.526;2023-03-05T06:59:14;6.50;;;3.17;;
17363;SDS011;8799;43.594;13.526;2023-03-05T07:01:42;7.43;;;3.60;;
17363;SDS011;8799;43.594;13.526;2023-03-05T07:04:11;6.10;;;3.30;;
17363;SDS011;8799;43.594;13.526;2023-03-05T07:06:39;7.77;;;3.63;;
17363;SDS011;8799;43.594;13.526;2023-03-05T07:09:08;5.80;;;3.83;;
17363;SDS011;8799;43.594;13.526;2023-03-05T07:11:39;7.50;;;3.50;;
17363;SDS011;8799;43.594;13.526;2023-03-05T07:14:09;6.67;;;2.93;;
17363;SDS011;8799;43.594;13.526;2023-03-05T07:16:36;9.13;;;3.37;;
17363;SDS011;8799;43.594;13.526;2023-03-05T07:19:06;9.13;;;3.93;;
17363;SDS011;8799;43.594;13.526;2023-03-05T07:21:35;10.40;;;4.03;;
17363;SDS011;8799;43.594;13.526;2023-03-05T07:24:03;9.47;;;3.60;;
17363;SDS011;8799;43.594;13.526;2023-03-05T07:26:31;9.77;;;4.13;;
17363;SDS011;8799;43.594;13.526;2023-03-05T07:28:59;6.30;;;3.60;;
17363;SDS011;8799;43.594;13.526;2023-03-05T07:31:29;8.73;;;3.60;;
17363;SDS011;8799;43.594;13.526;2023-03-05T07:34:02;17.70;;;4.20;;
17363;SDS011;8799;43.594;13.526;2023-03-05T07:36:31;7.83;;;3.70;;
17363;SDS011;8799;43.594;13.526;2023-03-05T07:39:00;7.63;;;4.43;;
17363;SDS011;8799;43.594;13.526;2023-03-05T07:41:29;11.17;;;4.00;;
17363;SDS011;8799;43.594;13.526;2023-03-05T07:43:56;9.13;;;4.03;;
17363;SDS011;8799;43.594;13.526;2023-03-05T07:46:25;8.83;;;4.40;;
17363;SDS011;8799;43.594;13.526;2023-03-05T07:48:55;7.20;;;3.93;;
17363;SDS011;8799;43.594;13.526;2023-03-05T07:51:25;8.73;;;3.43;;
17363;SDS011;8799;43.594;13.526;2023-03-05T07:53:53;6.93;;;3.73;;
17363;SDS011;8799;43.594;13.526;2023-03-05T07:56:24;7.63;;;3.80;;
17363;SDS011;8799;43.594;13.526;2023-03-05T07:58:53;10.27;;;4.43;;
17363;SDS011;8799;43.594;13.526;2023-03-05T08:01:22;8.80;;;4.00;;
17363;SDS011;8799;43.594;13.526;2023-03-05T08:03:51;14.17;;;4.50;;
17363;SDS011;8799;43.594;13.526;2023-03-05T08:06:21;8.47;;;3.97;;
17363;SDS011;8799;43.594;13.526;2023-03-05T08:08:48;8.00;;;3.33;;
17363;SDS011;8799;43.594;13.526;2023-03-05T08:11:17;9.97;;;4.00;;
17363;SDS011;8799;43.594;13.526;2023-03-05T08:13:45;9.07;;;3.83;;
17363;SDS011;8799;43.594;13.526;2023-03-05T08:16:13;8.60;;;3.77;;
17363;SDS011;8799;43.594;13.526;2023-03-05T08:18:42;10.10;;;4.37;;
17363;SDS011;8799;43.594;13.526;2023-03-05T08:21:16;7.73;;;3.77;;
17363;SDS011;8799;43.594;13.526;2023-03-05T08:23:48;14.23;;;4.23;;
17363;SDS011;8799;43.594;13.526;2023-03-05T08:26:18;9.13;;;3.57;;
17363;SDS011;8799;43.594;13.526;2023-03-05T08:28:47;6.67;;;3.87;;
17363;SDS011;8799;43.594;13.526;2023-03-05T08:31:16;6.43;;;3.27;;
17363;SDS011;8799;43.594;13.526;2023-03-05T08:33:46;6.93;;;3.43;;
17363;SDS011;8799;43.594;13.526;2023-03-05T08:36:14;6.47;;;3.60;;
17363;SDS011;8799;43.594;13.526;2023-03-05T08:38:42;11.53;;;4.10;;
17363;SDS011;8799;43.594;13.526;2023-03-05T08:41:12;6.33;;;3.57;;
17363;SDS011;8799;43.594;13.526;2023-03-05T08:43:40;12.77;;;4.10;;
17363;SDS011;8799;43.594;13.526;2023-03-05T08:46:09;13.73;;;3.90;;
17363;SDS011;8799;43.594;13.526;2023-03-05T08:48:37;10.10;;;3.90;;
17363;SDS011;8799;43.594;13.526;2023-03-05T08:51:06;8.60;;;3.53;;
17363;SDS011;8799;43.594;13.526;2023-03-05T08:53:34;9.03;;;4.00;;
17363;SDS011;8799;43.594;13.526;2023-03-05T08:56:02;8.17;;;3.57;;
17363;SDS011;8799;43.594;13.526;2023-03-05T08:58:32;8.00;;;3.67;;
17363;SDS011;8799;43.594;13.526;2023-03-05T09:01:04;15.57;;;4.23;;
17363;SDS011;8799;43.594;13.526;2023-03-05T09:03:32;10.37;;;4.10;;
17363;SDS011;8799;43.594;13.526;2023-03-05T09:06:00;9.90;;;3.77;;
17363;SDS011;8799;43.594;13.526;2023-03-05T09:08:30;11.90;;;4.13;;
17363;SDS011;8799;43.594;13.526;2023-03-05T09:11:00;12.10;;;4.00;;
17363;SDS011;8799;43.594;13.526;2023-03-05T09:13:28;11.80;;;3.53;;
17363;SDS011;8799;43.594;13.526;2023-03-05T09:15:58;11.13;;;4.10;;
17363;SDS011;8799;43.594;13.526;2023-03-05T09:18:27;10.03;;;3.63;;
17363;SDS011;8799;43.594;13.526;2023-03-05T09:20:55;10.20;;;4.03;;
17363;SDS011;8799;43.594;13.526;2023-03-05T09:23:23;11.37;;;4.10;;
17363;SDS011;8799;43.594;13.526;2023-03-05T09:25:54;6.27;;;3.70;;
17363;SDS011;8799;43.594;13.526;2023-03-05T09:28:23;9.70;;;4.13;;
17363;SDS011;8799;43.594;13.526;2023-03-05T09:30:51;10.53;;;3.27;;
17363;SDS011;8799;43.594;13.526;2023-03-05T09:33:21;9.37;;;4.30;;
17363;SDS011;8799;43.594;13.526;2023-03-05T09:35:49;8.40;;;3.90;;
17363;SDS011;8799;43.594;13.526;2023-03-05T09:38:17;7.23;;;3.90;;
17363;SDS011;8799;43.594;13.526;2023-03-05T09:40:47;7.30;;;4.13;;
17363;SDS011;8799;43.594;13.526;2023-03-05T09:43:25;6.77;;;3.63;;
17363;SDS011;8799;43.594;13.526;2023-03-05T09:46:12;8.23;;;4.10;;
17363;SDS011;8799;43.594;13.526;2023-03-05T09:48:49;8.13;;;3.60;;
17363;SDS011;8799;43.594;13.526;2023-03-05T09:51:22;7.40;;;3.77;;
17363;SDS011;8799;43.594;13.526;2023-03-05T09:53:56;9.80;;;3.57;;
17363;SDS011;8799;43.594;13.526;2023-03-05T09:56:28;9.67;;;4.03;;
17363;SDS011;8799;43.594;13.526;2023-03-05T09:58:59;10.13;;;3.73;;
17363;SDS011;8799;43.594;13.526;2023-03-05T10:01:33;6.73;;;3.57;;
17363;SDS011;8799;43.594;13.526;2023-03-05T10:04:08;9.23;;;3.63;;
17363;SDS011;8799;43.594;13.526;2023-03-05T10:06:41;10.73;;;3.30;;
17363;SDS011;8799;43.594;13.526;2023-03-05T10:09:16;8.00;;;3.70;;
17363;SDS011;8799;43.594;13.526;2023-03-05T10:11:58;7.70;;;3.90;;
17363;SDS011;8799;43.594;13.526;2023-03-05T10:14:30;6.10;;;3.33;;
17363;SDS011;8799;43.594;13.526;2023-03-05T10:17:21;12.00;;;3.83;;
17363;SDS011;8799;43.594;13.526;2023-03-05T10:20:27;7.60;;;3.23;;
17363;SDS011;8799;43.594;13.526;2023-03-05T10:23:18;7.53;;;3.50;;
17363;SDS011;8799;43.594;13.526;2023-03-05T10:26:07;9.73;;;3.60;;
17363;SDS011;8799;43.594;13.526;2023-03-05T10:28:46;7.67;;;3.23;;
17363;SDS011;8799;43.594;13.526;2023-03-05T10:31:24;7.37;;;3.60;;
17363;SDS011;8799;43.594;13.526;2023-03-05T10:34:11;8.47;;;3.77;;
17363;SDS011;8799;43.594;13.526;2023-03-05T10:37:08;9.20;;;4.00;;
17363;SDS011;8799;43.594;13.526;2023-03-05T10:39:56;5.17;;;3.13;;
17363;SDS011;8799;43.594;13.526;2023-03-05T10:42:33;7.60;;;3.33;;
17363;SDS011;8799;43.594;13.526;2023-03-05T10:45:12;8.23;;;3.70;;
17363;SDS011;8799;43.594;13.526;2023-03-05T10:47:43;7.77;;;3.13;;
17363;SDS011;8799;43.594;13.526;2023-03-05T10:50:16;6.23;;;3.93;;
17363;SDS011;8799;43.594;13.526;2023-03-05T10:52:53;9.00;;;3.50;;
17363;SDS011;8799;43.594;13.526;2023-03-05T10:55:32;5.63;;;3.50;;
17363;SDS011;8799;43.594;13.526;2023-03-05T10:58:03;9.73;;;3.67;;
17363;SDS011;8799;43.594;13.526;2023-03-05T11:00:37;5.33;;;3.50;;
17363;SDS011;8799;43.594;13.526;2023-03-05T11:03:07;7.47;;;3.77;;
17363;SDS011;8799;43.594;13.526;2023-03-05T11:05:41;7.17;;;4.00;;
17363;SDS011;8799;43.594;13.526;2023-03-05T11:08:23;11.63;;;3.73;;
17363;SDS011;8799;43.594;13.526;2023-03-05T11:11:01;9.20;;;3.70;;
17363;SDS011;8799;43.594;13.526;2023-03-05T11:13:52;5.57;;;3.20;;
17363;SDS011;8799;43.594;13.526;2023-03-05T11:16:23;6.77;;;3.63;;
17363;SDS011;8799;43.594;13.526;2023-03-05T11:21:45;9.77;;;3.03;;
17363;SDS011;8799;43.594;13.526;2023-03-05T11:24:31;7.90;;;3.33;;
17363;SDS011;8799;43.594;13.526;2023-03-05T11:26:59;5.43;;;3.03;;
17363;SDS011;8799;43.594;13.526;2023-03-05T11:29:27;7.13;;;3.40;;
17363;SDS011;8799;43.594;13.526;2023-03-05T11:32:01;6.20;;;3.43;;
17363;SDS011;8799;43.594;13.526;2023-03-05T11:34:43;8.57;;;3.33;;
17363;SDS011;8799;43.594;13.526;2023-03-05T11:37:18;7.33;;;3.10;;
17363;SDS011;8799;43.594;13.526;2023-03-05T11:42:45;6.57;;;3.60;;
17363;SDS011;8799;43.594;13.526;2023-03-05T11:45:20;6.37;;;3.00;;
17363;SDS011;8799;43.594;13.526;2023-03-05T11:47:48;6.93;;;3.50;;
17363;SDS011;8799;43.594;13.526;2023-03-05T11:50:19;6.87;;;3.60;;
17363;SDS011;8799;43.594;13.526;2023-03-05T11:52:50;9.00;;;3.50;;
17363;SDS011;8799;43.594;13.526;2023-03-05T11:55:24;6.97;;;3.27;;
17363;SDS011;8799;43.594;13.526;2023-03-05T11:57:57;7.50;;;3.30;;
17363;SDS011;8799;43.594;13.526;2023-03-05T12:00:33;6.03;;;3.27;;
17363;SDS011;8799;43.594;13.526;2023-03-05T12:03:04;5.40;;;2.93;;
17363;SDS011;8799;43.594;13.526;2023-03-05T12:05:38;5.50;;;3.10;;
17363;SDS011;8799;43.594;13.526;2023-03-05T12:08:09;7.63;;;3.40;;
17363;SDS011;8799;43.594;13.526;2023-03-05T12:10:43;6.00;;;3.50;;
17363;SDS011;8799;43.594;13.526;2023-03-05T12:13:12;4.57;;;2.83;;
17363;SDS011;8799;43.594;13.526;2023-03-05T12:15:52;5.53;;;2.97;;
17363;SDS011;8799;43.594;13.526;2023-03-05T12:18:55;7.00;;;3.37;;
17363;SDS011;8799;43.594;13.526;2023-03-05T12:21:29;5.67;;;3.30;;
17363;SDS011;8799;43.594;13.526;2023-03-05T12:24:02;7.00;;;3.37;;
17363;SDS011;8799;43.594;13.526;2023-03-05T12:26:55;6.07;;;3.23;;
17363;SDS011;8799;43.594;13.526;2023-03-05T12:29:40;6.27;;;3.43;;
17363;SDS011;8799;43.594;13.526;2023-03-05T12:35:27;6.57;;;3.43;;
17363;SDS011;8799;43.594;13.526;2023-03-05T12:38:02;6.63;;;2.97;;
17363;SDS011;8799;43.594;13.526;2023-03-05T12:40:48;7.40;;;3.57;;
17363;SDS011;8799;43.594;13.526;2023-03-05T12:43:28;6.67;;;3.30;;
17363;SDS011;8799;43.594;13.526;2023-03-05T12:48:49;6.43;;;3.20;;
17363;SDS011;8799;43.594;13.526;2023-03-05T12:51:33;8.97;;;3.70;;
17363;SDS011;8799;43.594;13.526;2023-03-05T12:57:05;6.87;;;3.20;;
17363;SDS011;8799;43.594;13.526;2023-03-05T12:59:45;6.33;;;3.30;;
17363;SDS011;8799;43.594;13.526;2023-03-05T13:02:20;5.50;;;3.27;;
17363;SDS011;8799;43.594;13.526;2023-03-05T13:04:52;6.83;;;3.90;;
17363;SDS011;8799;43.594;13.526;2023-03-05T13:07:25;7.00;;;3.77;;
17363;SDS011;8799;43.594;13.526;2023-03-05T13:09:53;6.03;;;3.27;;
17363;SDS011;8799;43.594;13.526;2023-03-05T13:12:22;7.00;;;3.30;;
17363;SDS011;8799;43.594;13.526;2023-03-05T13:14:57;6.57;;;3.67;;
17363;SDS011;8799;43.594;13.526;2023-03-05T13:17:34;6.73;;;3.30;;
17363;SDS011;8799;43.594;13.526;2023-03-05T13:20:24;6.67;;;3.40;;
17363;SDS011;8799;43.594;13.526;2023-03-05T13:23:02;8.07;;;2.93;;
17363;SDS011;8799;43.594;13.526;2023-03-05T13:25:31;5.47;;;3.27;;
17363;SDS011;8799;43.594;13.526;2023-03-05T13:28:03;4.83;;;2.73;;
17363;SDS011;8799;43.594;13.526;2023-03-05T13:30:34;7.90;;;3.57;;
17363;SDS011;8799;43.594;13.526;2023-03-05T13:33:02;4.50;;;2.90;;
17363;SDS011;8799;43.594;13.526;2023-03-05T13:35:31;6.17;;;3.67;;
17363;SDS011;8799;43.594;13.526;2023-03-05T13:38:00;8.47;;;3.53;;
17363;SDS011;8799;43.594;13.526;2023-03-05T13:40:28;5.03;;;3.10;;
17363;SDS011;8799;43.594;13.526;2023-03-05T13:43:07;8.07;;;3.60;;
17363;SDS011;8799;43.594;13.526;2023-03-05T13:45:37;7.97;;;3.20;;
17363;SDS011;8799;43.594;13.526;2023-03-05T13:48:06;5.73;;;2.90;;
17363;SDS011;8799;43.594;13.526;2023-03-05T13:50:42;5.53;;;3.30;;
17363;SDS011;8799;43.594;13.526;2023-03-05T13:53:15;7.47;;;3.30;;
17363;SDS011;8799;43.594;13.526;2023-03-05T13:55:46;5.27;;;3.13;;
17363;SDS011;8799;43.594;13.526;2023-03-05T14:04:16;5.07;;;3.20;;
17363;SDS011;8799;43.594;13.526;2023-03-05T14:06:46;4.70;;;3.00;;
17363;SDS011;8799;43.594;13.526;2023-03-05T14:09:19;6.87;;;3.50;;
17363;SDS011;8799;43.594;13.526;2023-03-05T14:11:52;7.83;;;3.40;;
17363;SDS011;8799;43.594;13.526;2023-03-05T14:14:28;7.40;;;3.40;;
17363;SDS011;8799;43.594;13.526;2023-03-05T14:19:49;6.30;;;3.40;;
17363;SDS011;8799;43.594;13.526;2023-03-05T14:22:27;7.40;;;3.27;;
17363;SDS011;8799;43.594;13.526;2023-03-05T14:24:58;8.10;;;2.97;;
17363;SDS011;8799;43.594;13.526;2023-03-05T14:27:26;6.10;;;3.47;;
17363;SDS011;8799;43.594;13.526;2023-03-05T14:29:57;5.33;;;3.23;;
17363;SDS011;8799;43.594;13.526;2023-03-05T14:32:29;4.50;;;3.00;;
17363;SDS011;8799;43.594;13.526;2023-03-05T14:34:59;6.07;;;3.33;;
17363;SDS011;8799;43.594;13.526;2023-03-05T14:37:31;7.17;;;3.67;;
17363;SDS011;8799;43.594;13.526;2023-03-05T14:40:02;6.47;;;3.17;;
17363;SDS011;8799;43.594;13.526;2023-03-05T14:42:32;5.93;;;3.60;;
17363;SDS011;8799;43.594;13.526;2023-03-05T14:45:08;6.50;;;3.07;;
17363;SDS011;8799;43.594;13.526;2023-03-05T14:47:39;4.17;;;2.77;;
17363;SDS011;8799;43.594;13.526;2023-03-05T14:50:09;8.40;;;3.10;;
17363;SDS011;8799;43.594;13.526;2023-03-05T14:52:40;4.77;;;3.13;;
17363;SDS011;8799;43.594;13.526;2023-03-05T14:55:13;6.37;;;3.50;;
17363;SDS011;8799;43.594;13.526;2023-03-05T14:57:43;6.47;;;3.40;;
17363;SDS011;8799;43.594;13.526;2023-03-05T15:00:14;6.47;;;3.50;;
17363;SDS011;8799;43.594;13.526;2023-03-05T15:02:46;6.27;;;3.40;;
17363;SDS011;8799;43.594;13.526;2023-03-05T15:05:15;6.57;;;3.60;;
17363;SDS011;8799;43.594;13.526;2023-03-05T15:07:44;5.00;;;3.00;;
17363;SDS011;8799;43.594;13.526;2023-03-05T15:12:49;6.40;;;3.30;;
17363;SDS011;8799;43.594;13.526;2023-03-05T15:15:17;5.40;;;3.00;;
17363;SDS011;8799;43.594;13.526;2023-03-05T15:17:48;7.10;;;3.50;;
17363;SDS011;8799;43.594;13.526;2023-03-05T15:20:19;5.40;;;3.07;;
17363;SDS011;8799;43.594;13.526;2023-03-05T15:22:49;6.00;;;3.23;;
17363;SDS011;8799;43.594;13.526;2023-03-05T15:25:19;6.73;;;3.10;;
17363;SDS011;8799;43.594;13.526;2023-03-05T15:27:48;4.70;;;3.03;;
17363;SDS011;8799;43.594;13.526;2023-03-05T15:30:19;5.40;;;3.33;;
17363;SDS011;8799;43.594;13.526;2023-03-05T15:32:51;8.30;;;3.37;;
17363;SDS011;8799;43.594;13.526;2023-03-05T15:35:21;6.13;;;3.80;;
17363;SDS011;8799;43.594;13.526;2023-03-05T15:37:50;6.07;;;3.27;;